createdAt,value
2022-10-03T00:02:09.951Z,72.00
2022-10-03T00:05:46.195Z,72.30
2022-10-03T00:09:37.253Z,72.40
2022-10-03T00:13:10.837Z,72.50
2022-10-03T00:16:51.012Z,72.80
2022-10-03T00:20:39.882Z,72.90
2022-10-03T00:24:17.135Z,73.00
2022-10-03T00:27:47.426Z,73.10
2022-10-03T00:31:14.827Z,73.20
2022-10-03T00:34:56.518Z,73.40
2022-10-03T00:38:48.570Z,73.60
2022-10-03T00:42:54.427Z,73.80
2022-10-03T00:46:45.987Z,73.90
2022-10-03T00:50:40.447Z,74.20
2022-10-03T00:54:15.012Z,74.30
2022-10-03T00:57:53.124Z,74.30
2022-10-03T01:01:33.003Z,74.40
2022-10-03T01:05:04.332Z,74.80
2022-10-03T01:08:54.992Z,75.10
2022-10-03T01:12:42.434Z,75.20
2022-10-03T01:16:13.185Z,76.40
2022-10-03T01:20:00.810Z,76.60
2022-10-03T01:23:48.082Z,76.80
2022-10-03T01:27:15.433Z,76.80
2022-10-03T01:30:43.866Z,76.90
2022-10-03T01:34:14.244Z,77.30
2022-10-03T01:37:44.218Z,77.40
2022-10-03T01:41:14.474Z,77.70
2022-10-03T01:44:47.178Z,77.70
2022-10-03T01:48:20.598Z,77.80
2022-10-03T01:51:53.154Z,78.00
2022-10-03T01:55:24.385Z,78.00
2022-10-03T01:58:59.272Z,78.20
2022-10-03T02:02:32.493Z,78.20
2022-10-03T02:06:06.698Z,78.20
2022-10-03T02:09:38.996Z,78.30
2022-10-03T02:13:13.879Z,78.40
2022-10-03T02:16:44.000Z,78.50
2022-10-03T02:20:15.097Z,78.80
2022-10-03T02:23:45.206Z,78.80
2022-10-03T02:27:36.080Z,79.10
2022-10-03T02:31:43.296Z,79.30
2022-10-03T02:35:20.623Z,79.50
2022-10-03T02:39:09.830Z,79.60
2022-10-03T02:42:57.991Z,80.00
2022-10-03T02:46:47.024Z,80.00
2022-10-03T02:50:49.576Z,80.10
2022-10-03T02:54:46.900Z,80.20
2022-10-03T02:58:46.594Z,80.20
2022-10-03T03:02:35.369Z,80.40
2022-10-03T03:06:43.598Z,80.60
2022-10-03T03:10:32.806Z,80.70
2022-10-03T03:14:26.600Z,80.90
2022-10-03T03:17:57.335Z,81.00
2022-10-03T03:21:30.483Z,81.20
2022-10-03T03:25:10.108Z,81.10
2022-10-03T03:28:50.535Z,81.50
2022-10-03T03:32:32.076Z,81.90
2022-10-03T03:36:06.190Z,82.00
2022-10-03T03:39:45.007Z,82.10
2022-10-03T03:43:34.162Z,82.20
2022-10-03T03:47:26.116Z,82.10
2022-10-03T03:51:06.225Z,82.00
2022-10-03T03:54:55.170Z,82.30
2022-10-03T03:58:38.905Z,82.30
2022-10-03T04:02:27.778Z,82.30
2022-10-03T04:06:23.736Z,82.40
2022-10-03T04:10:10.557Z,82.30
2022-10-03T04:13:57.632Z,82.40
2022-10-03T04:18:02.510Z,82.40
2022-10-03T04:22:07.762Z,82.30
2022-10-03T04:26:07.081Z,82.20
2022-10-03T04:29:54.559Z,82.30
2022-10-03T04:33:33.337Z,82.50
2022-10-03T04:37:27.851Z,83.30
2022-10-03T04:41:00.982Z,82.50
2022-10-03T04:44:42.070Z,82.50
2022-10-03T04:48:16.660Z,82.40
2022-10-03T04:51:55.906Z,82.60
2022-10-03T04:55:35.343Z,82.80
2022-10-03T04:59:10.374Z,82.90
2022-10-03T05:02:47.652Z,82.90
2022-10-03T05:06:26.674Z,83.00
2022-10-03T05:09:55.412Z,82.90
2022-10-03T05:13:30.351Z,82.90
2022-10-03T05:17:06.075Z,83.20
2022-10-03T05:20:47.018Z,83.20
2022-10-03T05:24:23.259Z,83.20
2022-10-03T05:27:53.221Z,83.00
2022-10-03T05:31:30.779Z,83.10
2022-10-03T05:35:40.934Z,83.20
2022-10-03T05:39:29.772Z,83.40
2022-10-03T05:43:16.720Z,83.20
2022-10-03T05:46:53.841Z,83.10
2022-10-03T05:50:43.360Z,83.10
2022-10-03T05:54:40.825Z,82.80
2022-10-03T05:59:13.925Z,82.90
2022-10-03T06:03:23.917Z,82.80
2022-10-03T06:07:02.884Z,82.80
2022-10-03T06:10:44.076Z,82.80
2022-10-03T06:14:33.397Z,82.80
2022-10-03T06:18:16.443Z,82.90
2022-10-03T06:22:23.457Z,83.10
2022-10-03T06:26:04.830Z,82.90
2022-10-03T06:30:12.155Z,83.00
2022-10-03T06:34:03.465Z,82.70
2022-10-03T06:38:00.045Z,81.50
2022-10-03T06:42:09.404Z,81.90
2022-10-03T06:46:23.026Z,81.30
2022-10-03T06:50:20.248Z,79.70
2022-10-03T06:54:18.187Z,79.40
2022-10-03T06:58:09.996Z,79.20
2022-10-03T07:01:52.260Z,78.60
2022-10-03T07:05:55.460Z,78.70
2022-10-03T07:10:04.012Z,79.00
2022-10-03T07:13:57.779Z,78.50
2022-10-03T07:17:44.185Z,78.90
2022-10-03T07:21:39.059Z,77.60
2022-10-03T07:25:26.657Z,76.40
2022-10-03T07:29:18.241Z,74.70
2022-10-03T07:33:17.955Z,73.70
2022-10-03T07:37:23.684Z,73.80
2022-10-03T07:41:17.054Z,72.70
2022-10-03T07:45:09.947Z,66.00
2022-10-03T07:48:56.663Z,65.40
2022-10-03T07:52:54.230Z,65.10
2022-10-03T07:56:42.717Z,63.90
2022-10-03T08:00:22.640Z,65.30
2022-10-03T08:04:31.678Z,65.80
2022-10-03T08:08:22.466Z,66.90
2022-10-03T08:12:16.222Z,67.50
2022-10-03T08:16:14.969Z,67.30
2022-10-03T08:20:12.378Z,68.30
2022-10-03T08:24:13.079Z,68.90
2022-10-03T08:27:52.604Z,69.10
2022-10-03T08:31:55.099Z,68.90
2022-10-03T08:35:44.321Z,69.20
2022-10-03T08:39:35.577Z,69.00
2022-10-03T08:43:34.519Z,68.50
2022-10-03T08:47:59.497Z,66.50
2022-10-03T08:51:57.080Z,66.90
2022-10-03T08:55:42.975Z,66.20
2022-10-03T08:59:41.274Z,65.40
2022-10-03T09:03:43.126Z,63.60
2022-10-03T09:07:31.428Z,60.60
2022-10-03T09:11:34.554Z,60.30
2022-10-03T09:15:14.876Z,57.20
2022-10-03T09:19:16.431Z,56.30
2022-10-03T09:23:11.710Z,55.90
2022-10-03T09:26:59.648Z,56.00
2022-10-03T09:30:40.925Z,56.40
2022-10-03T09:34:55.053Z,53.10
2022-10-03T09:38:55.188Z,50.20
2022-10-03T09:42:44.117Z,47.70
2022-10-03T09:46:46.595Z,47.70
2022-10-03T09:50:38.911Z,46.70
2022-10-03T09:54:43.028Z,44.80
2022-10-03T09:58:39.859Z,43.50
2022-10-03T10:02:26.396Z,44.40
2022-10-03T10:06:26.633Z,43.20
2022-10-03T10:10:25.225Z,43.10
2022-10-03T10:14:21.527Z,45.00
2022-10-03T10:18:24.380Z,46.00
2022-10-03T10:22:25.895Z,46.20
2022-10-03T10:26:49.661Z,46.40
2022-10-03T10:30:23.218Z,46.40
2022-10-03T10:34:22.386Z,46.80
2022-10-03T10:38:14.206Z,45.90
2022-10-03T10:42:02.592Z,46.20
2022-10-03T10:45:45.605Z,46.50
2022-10-03T10:49:42.325Z,47.00
2022-10-03T10:53:45.730Z,47.40
2022-10-03T10:58:06.123Z,48.40
2022-10-03T11:02:07.363Z,49.00
2022-10-03T11:06:12.744Z,48.80
2022-10-03T11:09:57.111Z,51.10
2022-10-03T11:13:57.538Z,53.10
2022-10-03T11:17:58.223Z,53.40
2022-10-03T11:21:59.584Z,55.10
2022-10-03T11:25:53.808Z,55.80
2022-10-03T11:30:14.854Z,55.80
2022-10-03T11:34:11.549Z,55.30
2022-10-03T11:37:43.404Z,54.60
2022-10-03T11:41:18.685Z,53.70
2022-10-03T11:44:47.128Z,52.80
2022-10-03T11:48:27.093Z,51.40
2022-10-03T11:52:04.832Z,50.60
2022-10-03T11:55:34.886Z,50.40
2022-10-03T11:59:24.813Z,49.30
2022-10-03T12:03:13.597Z,48.60
2022-10-03T12:07:15.876Z,47.80
2022-10-03T12:10:49.338Z,46.90
2022-10-03T12:14:25.626Z,47.80
2022-10-03T12:17:58.726Z,45.80
2022-10-03T12:21:30.107Z,46.80
2022-10-03T12:24:59.910Z,47.50
2022-10-03T12:28:26.962Z,47.50
2022-10-03T12:32:02.583Z,48.00
2022-10-03T12:35:41.426Z,48.10
2022-10-03T12:39:24.400Z,48.10
2022-10-03T12:43:04.130Z,47.90
2022-10-03T12:46:36.461Z,47.90
2022-10-03T12:50:08.501Z,48.00
2022-10-03T12:53:38.940Z,47.80
2022-10-03T12:57:22.389Z,47.20
2022-10-03T13:00:58.283Z,47.20
2022-10-03T13:04:32.542Z,47.40
2022-10-03T13:08:01.626Z,47.00
2022-10-03T13:11:36.257Z,47.10
2022-10-03T13:15:39.006Z,47.30
2022-10-03T13:19:08.684Z,47.80
2022-10-03T13:22:38.164Z,47.90
2022-10-03T13:26:13.671Z,48.40
2022-10-03T13:29:44.637Z,48.80
2022-10-03T13:33:17.189Z,49.00
2022-10-03T13:36:45.818Z,48.90
2022-10-03T13:40:17.981Z,49.10
2022-10-03T13:43:48.733Z,49.10
2022-10-03T13:47:31.709Z,48.90
2022-10-03T13:51:02.068Z,49.00
2022-10-03T13:54:51.211Z,49.20
2022-10-03T13:58:32.963Z,49.50
2022-10-03T14:02:05.241Z,48.70
2022-10-03T14:05:58.473Z,48.70
2022-10-03T14:09:38.902Z,48.60
2022-10-03T14:13:17.052Z,48.60
2022-10-03T14:16:47.761Z,48.50
2022-10-03T14:20:23.315Z,48.80
2022-10-03T14:23:52.250Z,48.80
2022-10-03T14:27:36.575Z,49.60
2022-10-03T14:31:09.062Z,49.50
2022-10-03T14:34:52.467Z,49.90
2022-10-03T14:39:09.685Z,50.10
2022-10-03T14:43:13.688Z,50.20
2022-10-03T14:46:45.792Z,50.70
2022-10-03T14:50:17.103Z,50.90
2022-10-03T14:53:55.707Z,50.80
2022-10-03T14:57:52.985Z,51.20
2022-10-03T15:01:30.446Z,51.70
2022-10-03T15:04:59.178Z,51.90
2022-10-03T15:08:28.202Z,51.80
2022-10-03T15:12:01.539Z,51.70
2022-10-03T15:15:34.814Z,52.00
2022-10-03T15:19:07.337Z,52.20
2022-10-03T15:22:35.552Z,52.40
2022-10-03T15:25:59.284Z,52.80
2022-10-03T15:29:25.779Z,53.10
2022-10-03T15:32:50.568Z,53.30
2022-10-03T15:36:20.594Z,53.70
2022-10-03T15:39:45.767Z,54.10
2022-10-03T15:43:29.557Z,54.30
2022-10-03T15:46:57.984Z,54.60
2022-10-03T15:50:26.526Z,54.70
2022-10-03T15:53:53.264Z,54.90
2022-10-03T15:57:22.673Z,55.10
2022-10-03T16:00:55.813Z,55.10
2022-10-03T16:04:25.357Z,55.30
2022-10-03T16:07:57.547Z,55.20
2022-10-03T16:11:25.358Z,55.50
2022-10-03T16:14:52.362Z,55.80
2022-10-03T16:18:50.857Z,56.50
2022-10-03T16:22:21.434Z,56.10
2022-10-03T16:25:49.421Z,56.20
2022-10-03T16:29:21.124Z,56.60
2022-10-03T16:32:51.122Z,56.80
2022-10-03T16:36:21.637Z,56.90
2022-10-03T16:39:52.055Z,57.30
2022-10-03T16:43:19.166Z,57.50
2022-10-03T16:46:51.787Z,57.90
2022-10-03T16:50:25.295Z,58.30
2022-10-03T16:53:58.698Z,58.80
2022-10-03T16:57:29.822Z,59.00
2022-10-03T17:01:22.246Z,59.30
2022-10-03T17:04:55.946Z,59.60
2022-10-03T17:08:41.122Z,61.10
2022-10-03T17:12:09.226Z,60.60
2022-10-03T17:15:39.378Z,61.00
2022-10-03T17:19:15.710Z,61.50
2022-10-03T17:22:47.176Z,61.60
2022-10-03T17:26:18.274Z,61.80
2022-10-03T17:29:47.819Z,62.10
2022-10-03T17:33:22.088Z,62.60
2022-10-03T17:37:13.313Z,62.80
2022-10-03T17:41:06.863Z,63.10
2022-10-03T17:44:38.144Z,63.60
2022-10-03T17:48:11.109Z,63.70
2022-10-03T17:51:44.489Z,63.90
2022-10-03T17:55:14.773Z,64.00
2022-10-03T17:58:45.910Z,64.30
2022-10-03T18:02:27.550Z,64.30
2022-10-03T18:05:55.192Z,64.30
2022-10-03T18:09:26.899Z,64.40
2022-10-03T18:12:54.821Z,64.60
2022-10-03T18:16:28.567Z,64.80
2022-10-03T18:20:06.858Z,65.00
2022-10-03T18:23:54.373Z,65.00
2022-10-03T18:28:02.572Z,65.00
2022-10-03T18:31:34.922Z,65.10
2022-10-03T18:35:10.844Z,65.30
2022-10-03T18:38:38.809Z,65.40
2022-10-03T18:42:07.343Z,65.60
2022-10-03T18:45:37.613Z,65.60
2022-10-03T18:49:31.873Z,65.90
2022-10-03T18:52:54.453Z,66.00
2022-10-03T18:56:23.044Z,66.20
2022-10-03T18:59:52.534Z,66.20
2022-10-03T19:03:18.484Z,66.40
2022-10-03T19:06:47.888Z,66.90
2022-10-03T19:10:34.390Z,66.90
2022-10-03T19:14:01.738Z,66.80
2022-10-03T19:17:32.436Z,67.00
2022-10-03T19:21:00.366Z,67.20
2022-10-03T19:24:56.657Z,67.60
2022-10-03T19:28:21.196Z,67.60
2022-10-03T19:31:53.293Z,68.00
2022-10-03T19:35:21.858Z,67.80
2022-10-03T19:38:47.801Z,68.10
2022-10-03T19:42:27.111Z,68.20
2022-10-03T19:45:54.827Z,68.20
2022-10-03T19:49:28.425Z,68.30
2022-10-03T19:52:52.886Z,68.30
2022-10-03T19:56:18.434Z,68.50
2022-10-03T19:59:47.927Z,68.70
2022-10-03T20:03:21.479Z,68.90
2022-10-03T20:07:11.213Z,69.10
2022-10-03T20:10:45.592Z,69.30
2022-10-03T20:14:16.391Z,69.20
2022-10-03T20:17:41.901Z,69.20
2022-10-03T20:21:11.457Z,69.30
2022-10-03T20:24:37.701Z,69.30
2022-10-03T20:28:05.004Z,69.40
2022-10-03T20:31:31.419Z,69.40
2022-10-03T20:35:01.328Z,69.30
2022-10-03T20:38:40.660Z,69.20
2022-10-03T20:42:10.854Z,69.30
2022-10-03T20:45:36.939Z,69.20
2022-10-03T20:49:15.910Z,69.40
2022-10-03T20:52:41.034Z,69.40
2022-10-03T20:56:08.249Z,69.40
2022-10-03T20:59:40.173Z,69.30
2022-10-03T21:03:08.913Z,69.40
2022-10-03T21:06:37.127Z,69.60
2022-10-03T21:10:10.774Z,69.60
2022-10-03T21:13:39.692Z,69.60
2022-10-03T21:17:04.230Z,69.60
2022-10-03T21:20:33.112Z,69.60
2022-10-03T21:24:03.970Z,69.50
2022-10-03T21:27:29.809Z,69.60
2022-10-03T21:31:11.463Z,69.70
2022-10-03T21:34:44.182Z,69.90
2022-10-03T21:38:19.229Z,69.80
2022-10-03T21:41:53.162Z,69.60
2022-10-03T21:45:26.394Z,69.80
2022-10-03T21:49:03.634Z,69.80
2022-10-03T21:52:50.586Z,69.90
2022-10-03T21:56:30.748Z,70.00
2022-10-03T22:00:10.826Z,70.00
2022-10-03T22:03:44.718Z,70.00
2022-10-03T22:07:14.138Z,69.90
2022-10-03T22:10:38.131Z,70.20
2022-10-03T22:14:14.529Z,71.00
2022-10-03T22:17:43.328Z,70.40
2022-10-03T22:21:21.590Z,70.50
2022-10-03T22:24:58.156Z,70.70
2022-10-03T22:28:33.673Z,70.70
2022-10-03T22:32:03.382Z,70.70
2022-10-03T22:35:48.261Z,70.80
2022-10-03T22:39:16.500Z,70.90
2022-10-03T22:42:44.570Z,71.10
2022-10-03T22:46:09.966Z,71.20
2022-10-03T22:49:38.533Z,71.20
2022-10-03T22:53:04.442Z,71.60
2022-10-03T22:56:48.864Z,72.10
2022-10-03T23:00:16.634Z,72.40
2022-10-03T23:03:40.777Z,72.40
2022-10-03T23:07:41.051Z,72.40
2022-10-03T23:11:10.511Z,72.70
2022-10-03T23:14:38.614Z,72.70
2022-10-03T23:18:40.534Z,72.50
2022-10-03T23:22:06.074Z,72.60
2022-10-03T23:25:33.890Z,72.50
2022-10-03T23:29:04.073Z,72.50
2022-10-03T23:36:19.974Z,72.50
2022-10-03T23:39:46.007Z,72.30
2022-10-03T23:43:31.398Z,72.50
2022-10-03T23:46:55.257Z,72.30
2022-10-03T23:50:23.783Z,72.30
2022-10-03T23:53:52.023Z,72.00
2022-10-03T23:57:18.500Z,71.90
